Bald Hill, Kentucky
Current Conditions -  °F | °C
As of 3:55 PM on Tuesday 21 Oct 2014 (Local Time) from KFGX Reporting Station
Overcast Overcast  
Wind Chill: 52°   Ceiling: 3600
Heat Index: 52°   Visibility: 10mi
Dew Point: 40°   Wind: 13mph
Humidity: 65%   Direction: 360°N
Pressure: 30.07"   Gusts: NA
Location:  38.436°N, 83.6931°W
Report Text: KFGX 211955Z AUTO 36011KT 10SM BKN036 OVC048 11/05 A3007 RMK AO2 T01100047
Loading
Personal Weather Stations






























Interactive Weather Map
Tropical Storm Tracking
New forecast layout! Learn more

10-Day Weather Forecast

Advertisements
Track Severe Weather on mobile